Time;durP1;ratioP1;P1;durP2;ratioP2;P2;SDS_P1;SDS_P2;PMS_P1;PMS_P2;Temp;Humidity;BMP_temperature;BMP_pressure;BME280_temperature;BME280_humidity;BME280_pressure;Samples;Min_cycle;Max_cycle;Signal;HPM_P1;HPM_P2
2022/07/26 00:00:58;;;;;;;20.17;2.80;;;;;;;17.62;100.00;101047.47;10459939;28;21508;-68
2022/07/26 00:05:59;;;;;;;12.88;3.05;;;;;;;17.53;100.00;101044.53;10458566;28;20052;-68
2022/07/26 00:10:59;;;;;;;21.35;3.47;;;;;;;17.47;100.00;101043.75;10474239;28;20041;-68
2022/07/26 00:16:00;;;;;;;14.85;2.97;;;;;;;17.40;100.00;101057.19;10459684;28;20029;-68
2022/07/26 00:21:00;;;;;;;16.02;3.17;;;;;;;17.39;100.00;101049.97;10441934;28;20033;-68
2022/07/26 00:26:01;;;;;;;20.63;4.45;;;;;;;17.43;100.00;101050.22;10459380;28;20099;-69
2022/07/26 00:31:01;;;;;;;16.13;3.40;;;;;;;17.45;100.00;101048.78;10459993;28;20041;-68
2022/07/26 00:36:02;;;;;;;25.15;3.90;;;;;;;17.42;100.00;101037.41;10460508;28;20041;-68
2022/07/26 00:41:04;;;;;;;14.65;4.35;;;;;;;17.46;100.00;101055.19;10459196;28;20048;-68
2022/07/26 00:46:04;;;;;;;15.23;3.25;;;;;;;17.40;100.00;101051.63;10459372;28;20037;-68
2022/07/26 00:51:05;;;;;;;15.60;3.92;;;;;;;17.41;100.00;101064.44;10458996;28;20041;-68
2022/07/26 00:56:05;;;;;;;19.63;4.53;;;;;;;17.40;100.00;101054.41;10441067;28;20069;-68
2022/07/26 01:01:06;;;;;;;15.95;3.42;;;;;;;17.43;100.00;101053.00;10449732;28;20051;-69
2022/07/26 01:06:06;;;;;;;18.52;5.13;;;;;;;17.41;100.00;101063.59;10422185;28;20045;-68
2022/07/26 01:11:07;;;;;;;19.63;4.00;;;;;;;17.41;100.00;101067.22;10476067;28;20135;-67
2022/07/26 01:16:07;;;;;;;21.77;4.30;;;;;;;17.43;100.00;101059.41;10458636;28;20036;-67
2022/07/26 01:21:09;;;;;;;26.08;6.85;;;;;;;17.51;100.00;101069.06;10455712;28;20037;-69
2022/07/26 01:26:09;;;;;;;20.40;3.75;;;;;;;17.57;100.00;101067.00;10455632;28;20037;-68
2022/07/26 01:31:10;;;;;;;19.85;3.72;;;;;;;17.65;100.00;101058.00;10457661;28;20033;-67
2022/07/26 01:36:11;;;;;;;11.98;3.85;;;;;;;17.70;100.00;101060.75;10456715;28;20470;-68
2022/07/26 01:41:12;;;;;;;17.30;3.72;;;;;;;17.73;100.00;101058.16;10455960;28;20295;-68
2022/07/26 01:46:12;;;;;;;16.52;3.30;;;;;;;17.75;100.00;101066.22;10439457;28;20037;-68
2022/07/26 01:51:13;;;;;;;11.35;3.80;;;;;;;17.75;100.00;101060.66;10454531;28;20065;-68
2022/07/26 01:56:13;;;;;;;11.27;3.47;;;;;;;17.76;100.00;101062.34;10454055;28;20052;-64
2022/07/26 02:01:14;;;;;;;15.63;3.75;;;;;;;17.70;100.00;101069.09;10452465;28;20089;-67
2022/07/26 02:06:14;;;;;;;16.67;3.55;;;;;;;17.58;100.00;101063.13;10456471;28;20456;-68
2022/07/26 02:11:14;;;;;;;14.50;3.40;;;;;;;17.53;100.00;101061.25;10438646;28;20056;-68
2022/07/26 02:16:15;;;;;;;19.50;3.35;;;;;;;17.53;100.00;101061.25;10435986;28;20040;-67
2022/07/26 02:21:15;;;;;;;16.15;3.85;;;;;;;17.54;100.00;101068.44;10455097;28;20033;-68
2022/07/26 02:26:18;;;;;;;17.55;3.10;;;;;;;17.52;100.00;101060.38;10436133;28;20511;-67
2022/07/26 02:31:19;;;;;;;13.68;3.20;;;;;;;17.52;100.00;101073.47;10454121;28;20032;-68
2022/07/26 02:36:19;;;;;;;18.30;3.55;;;;;;;17.57;100.00;101064.22;10454041;28;20378;-68
2022/07/26 02:41:20;;;;;;;11.02;2.95;;;;;;;17.54;100.00;101063.69;10453137;28;20496;-68
2022/07/26 02:46:20;;;;;;;14.90;3.67;;;;;;;17.57;100.00;101078.16;10453180;28;20462;-63
2022/07/26 02:51:21;;;;;;;12.02;2.95;;;;;;;17.53;100.00;101084.31;10456546;28;20048;-68
2022/07/26 02:56:21;;;;;;;11.73;2.95;;;;;;;17.57;100.00;101083.72;10452267;28;20037;-67
2022/07/26 03:01:22;;;;;;;13.25;2.80;;;;;;;17.22;100.00;101042.09;10451413;28;20041;-69
2022/07/26 03:06:22;;;;;;;14.35;3.53;;;;;;;17.62;100.00;101098.41;10453683;28;20037;-68
2022/07/26 03:11:23;;;;;;;22.17;5.70;;;;;;;17.53;100.00;101112.16;10453395;28;20500;-69
2022/07/26 03:16:23;;;;;;;19.05;5.57;;;;;;;17.33;100.00;101129.06;10454210;28;20029;-68
2022/07/26 03:21:24;;;;;;;10.13;4.97;;;;;;;17.09;100.00;101138.19;10454475;28;20033;-74
2022/07/26 03:26:24;;;;;;;10.30;5.07;;;;;;;16.85;100.00;101145.66;10452192;28;20079;-67
2022/07/26 03:31:25;;;;;;;11.25;4.15;;;;;;;16.63;100.00;101146.88;10456169;28;20044;-72
2022/07/26 03:36:25;;;;;;;10.27;4.28;;;;;;;16.54;100.00;101162.50;10434675;28;20069;-71
2022/07/26 03:41:26;;;;;;;12.30;4.50;;;;;;;16.47;100.00;101167.53;10421244;28;20477;-72
2022/07/26 03:46:26;;;;;;;15.05;4.45;;;;;;;16.43;100.00;101172.00;10429841;28;20072;-71
2022/07/26 03:51:27;;;;;;;17.08;4.20;;;;;;;16.37;100.00;101185.13;10460545;28;20029;-72
2022/07/26 03:56:27;;;;;;;18.33;4.68;;;;;;;16.22;100.00;101199.88;10460806;28;20497;-72
2022/07/26 04:01:28;;;;;;;14.70;4.22;;;;;;;16.14;100.00;101187.44;10460390;28;20055;-72
2022/07/26 04:06:28;;;;;;;20.40;4.78;;;;;;;16.13;100.00;101198.81;10461306;28;20072;-72
2022/07/26 04:11:29;;;;;;;15.57;5.18;;;;;;;16.10;100.00;101202.16;10461074;28;20144;-70
2022/07/26 04:16:29;;;;;;;17.27;3.67;;;;;;;16.10;100.00;101216.91;10461416;28;20063;-71
2022/07/26 04:21:30;;;;;;;14.60;3.60;;;;;;;16.10;100.00;101216.03;10459816;28;20033;-72
2022/07/26 04:26:30;;;;;;;11.88;4.45;;;;;;;16.04;100.00;101222.72;10458537;28;20045;-72
2022/07/26 04:31:31;;;;;;;13.13;3.85;;;;;;;16.04;100.00;101229.13;10460223;28;20047;-72
2022/07/26 04:36:31;;;;;;;14.50;2.53;;;;;;;16.08;100.00;101227.47;10460292;28;20037;-72
2022/07/26 04:41:32;;;;;;;6.50;2.05;;;;;;;16.00;100.00;101236.38;10458483;28;20045;-71
2022/07/26 04:46:32;;;;;;;12.75;2.00;;;;;;;15.97;100.00;101231.38;10459739;28;20045;-72
2022/07/26 04:51:33;;;;;;;15.57;1.90;;;;;;;15.96;100.00;101239.97;10458190;28;20507;-72
2022/07/26 04:56:33;;;;;;;7.60;1.88;;;;;;;15.96;100.00;101229.72;10456173;28;20497;-72
2022/07/26 05:01:34;;;;;;;6.50;1.45;;;;;;;16.02;100.00;101234.16;10456343;28;20072;-72
2022/07/26 05:06:34;;;;;;;11.70;2.60;;;;;;;16.10;100.00;101258.56;10457648;28;20045;-71
2022/07/26 05:11:35;;;;;;;7.82;1.63;;;;;;;16.03;100.00;101257.19;10456322;28;20033;-72
2022/07/26 05:16:35;;;;;;;6.85;2.45;;;;;;;15.99;100.00;101267.19;10459328;28;20029;-72
2022/07/26 05:21:36;;;;;;;5.25;1.40;;;;;;;16.04;100.00;101273.56;10456034;28;20044;-73
2022/07/26 05:26:36;;;;;;;13.63;3.15;;;;;;;16.01;100.00;101287.19;10456246;28;20070;-73
2022/07/26 05:31:37;;;;;;;7.53;1.23;;;;;;;15.82;100.00;101285.00;10456238;28;20043;-72
2022/07/26 05:36:37;;;;;;;8.23;1.00;;;;;;;15.87;100.00;101303.56;10455995;28;20045;-72
2022/07/26 05:41:38;;;;;;;13.23;1.42;;;;;;;15.91;100.00;101305.50;10458720;28;20025;-73
2022/07/26 05:46:38;;;;;;;7.75;1.40;;;;;;;15.92;100.00;101301.63;10455809;28;20061;-73
2022/07/26 05:51:39;;;;;;;6.45;1.05;;;;;;;15.82;100.00;101293.31;10457872;28;20511;-74
2022/07/26 05:56:39;;;;;;;6.18;0.80;;;;;;;15.90;100.00;101300.25;10454496;28;20041;-73
2022/07/26 06:01:40;;;;;;;5.80;1.20;;;;;;;16.12;100.00;101317.44;10446159;28;20498;-73
2022/07/26 06:06:40;;;;;;;8.27;1.08;;;;;;;16.20;100.00;101318.78;10455450;28;20045;-74
2022/07/26 06:11:41;;;;;;;5.15;0.70;;;;;;;16.40;100.00;101333.75;10455985;28;20112;-71
2022/07/26 06:16:41;;;;;;;5.25;1.65;;;;;;;16.09;100.00;101331.88;10454336;28;20037;-71
2022/07/26 06:21:44;;;;;;;3.10;0.65;;;;;;;15.86;100.00;101352.72;10438758;28;20048;-72
2022/07/26 06:26:45;;;;;;;4.88;0.80;;;;;;;15.75;100.00;101362.19;10454083;28;20045;-72
2022/07/26 06:31:46;;;;;;;5.47;0.80;;;;;;;15.76;100.00;101363.84;10455198;28;20029;-72
2022/07/26 06:36:46;;;;;;;4.30;1.35;;;;;;;15.83;100.00;101350.50;10456503;28;20041;-72
2022/07/26 06:41:47;;;;;;;5.45;0.88;;;;;;;16.19;100.00;101383.81;10419965;28;20048;-71
2022/07/26 06:46:48;;;;;;;7.20;0.98;;;;;;;16.25;100.00;101366.03;10456054;28;20060;-72
2022/07/26 06:51:48;;;;;;;4.45;1.35;;;;;;;16.48;100.00;101369.31;10456183;28;20037;-73
2022/07/26 06:56:49;;;;;;;4.10;0.80;;;;;;;16.64;100.00;101383.97;10455394;28;20037;-71
2022/07/26 07:01:49;;;;;;;6.97;0.80;;;;;;;16.72;100.00;101387.03;10455259;28;20029;-71
2022/07/26 07:06:50;;;;;;;2.40;1.10;;;;;;;16.79;100.00;101408.16;10452725;28;20041;-70
2022/07/26 07:11:50;;;;;;;5.57;0.82;;;;;;;16.86;100.00;101409.50;10460961;28;20052;-71
2022/07/26 07:16:51;;;;;;;5.75;0.75;;;;;;;16.84;100.00;101408.13;10463233;28;20041;-63
2022/07/26 07:21:51;;;;;;;4.00;0.73;;;;;;;16.91;100.00;101422.59;10464176;28;20040;-71
2022/07/26 07:26:52;;;;;;;6.70;0.70;;;;;;;17.36;100.00;101429.03;10460801;28;20052;-70
2022/07/26 07:31:52;;;;;;;4.00;0.95;;;;;;;17.57;100.00;101431.72;10462513;28;20045;-71
2022/07/26 07:36:53;;;;;;;4.07;0.75;;;;;;;17.55;100.00;101435.63;10462688;28;20048;-70
2022/07/26 07:41:53;;;;;;;8.02;0.68;;;;;;;17.47;100.00;101444.59;10463823;28;20033;-69
2022/07/26 07:46:54;;;;;;;4.30;0.60;;;;;;;17.57;100.00;101445.63;10460502;28;20052;-70
2022/07/26 07:51:54;;;;;;;4.00;0.60;;;;;;;17.54;100.00;101441.47;10462646;28;20048;-71
2022/07/26 07:56:55;;;;;;;5.00;0.73;;;;;;;17.55;100.00;101441.19;10461281;28;20041;-70
2022/07/26 08:01:55;;;;;;;5.53;0.63;;;;;;;17.80;100.00;101450.50;10459122;28;20094;-69
2022/07/26 08:06:56;;;;;;;6.28;1.17;;;;;;;18.36;100.00;101440.88;10459314;28;20091;-71
2022/07/26 08:11:57;;;;;;;5.05;0.45;;;;;;;19.05;100.00;101438.75;10460340;28;20059;-64
2022/07/26 08:16:57;;;;;;;6.65;0.80;;;;;;;19.06;100.00;101448.81;10461070;28;20049;-67
2022/07/26 08:21:57;;;;;;;2.70;1.08;;;;;;;18.18;100.00;101417.34;10458693;28;20044;-72
2022/07/26 08:26:58;;;;;;;7.50;0.70;;;;;;;17.74;100.00;101479.50;10459791;28;20045;-72
2022/07/26 08:31:58;;;;;;;8.52;2.15;;;;;;;17.59;100.00;101482.38;10441791;28;20037;-71
2022/07/26 08:36:59;;;;;;;8.80;1.52;;;;;;;17.80;100.00;101474.72;10438926;28;20029;-71
2022/07/26 08:42:01;;;;;;;11.63;1.10;;;;;;;17.77;100.00;101478.09;10419607;28;20098;-71
2022/07/26 08:47:02;;;;;;;8.38;1.02;;;;;;;17.80;100.00;101467.22;10448656;28;20390;-71
2022/07/26 08:52:02;;;;;;;6.85;0.75;;;;;;;18.15;100.00;101465.31;10416015;28;20109;-69
2022/07/26 08:57:03;;;;;;;8.20;1.13;;;;;;;18.71;100.00;101487.09;10416068;28;20533;-70
2022/07/26 09:02:05;;;;;;;4.82;0.98;;;;;;;18.95;100.00;101483.53;10434082;28;20036;-74
2022/07/26 09:07:05;;;;;;;5.22;1.20;;;;;;;19.29;100.00;101496.56;10458362;28;20110;-69
2022/07/26 09:12:17;;;;;;;11.15;1.73;;;;;;;19.39;100.00;101496.41;10457878;28;20048;-71
2022/07/26 09:17:19;;;;;;;4.68;0.68;;;;;;;19.47;100.00;101501.34;10457990;28;20089;-71
2022/07/26 09:22:19;;;;;;;8.00;0.90;;;;;;;19.65;100.00;101515.63;10455770;28;20119;-72
2022/07/26 09:27:20;;;;;;;9.00;1.00;;;;;;;19.50;100.00;101519.44;10458536;28;20477;-71
2022/07/26 09:32:22;;;;;;;3.47;1.23;;;;;;;18.83;100.00;101545.34;10457267;28;20037;-71
2022/07/26 09:37:36;;;;;;;5.28;0.95;;;;;;;18.29;100.00;101547.16;10458408;28;20047;-71
2022/07/26 09:42:37;;;;;;;6.10;0.80;;;;;;;18.36;100.00;101557.97;10457726;28;20066;-71
2022/07/26 09:47:38;;;;;;;5.95;0.70;;;;;;;18.72;100.00;101555.69;10454856;28;20076;-71
2022/07/26 09:52:38;;;;;;;12.43;1.20;;;;;;;18.66;100.00;101573.59;10456209;28;20049;-71
2022/07/26 09:57:39;;;;;;;11.25;1.30;;;;;;;18.34;100.00;101569.41;10456562;28;20044;-71
2022/07/26 10:02:39;;;;;;;10.32;1.88;;;;;;;18.38;100.00;101564.09;10455673;28;20064;-72
2022/07/26 10:07:40;;;;;;;6.50;1.17;;;;;;;18.58;100.00;101567.81;10454880;28;20041;-71
2022/07/26 10:12:45;;;;;;;10.45;1.50;;;;;;;19.02;100.00;101576.13;10437360;28;20036;-71
2022/07/26 10:17:46;;;;;;;7.13;1.20;;;;;;;19.21;100.00;101567.00;10457056;28;20025;-71
2022/07/26 10:22:46;;;;;;;9.98;2.08;;;;;;;19.09;100.00;101579.38;10456000;28;20037;-71
2022/07/26 10:27:48;;;;;;;13.93;2.45;;;;;;;19.09;100.00;101584.94;10453749;28;20041;-72
2022/07/26 10:33:03;;;;;;;10.18;2.28;;;;;;;18.70;100.00;101601.75;10453496;28;20063;-71
2022/07/26 10:38:28;;;;;;;11.13;2.15;;;;;;;18.81;100.00;101613.69;10456258;28;20493;-71
2022/07/26 10:43:29;;;;;;;24.70;3.03;;;;;;;19.00;100.00;101611.84;10454501;28;20496;-70
2022/07/26 10:48:29;;;;;;;13.00;1.90;;;;;;;19.11;100.00;101598.63;10461945;28;20052;-69
2022/07/26 10:53:29;;;;;;;13.40;2.17;;;;;;;19.69;99.52;101606.06;10463654;28;20044;-69
2022/07/26 10:58:42;;;;;;;12.30;1.80;;;;;;;19.99;95.10;101604.03;10445389;28;20044;-68
2022/07/26 11:03:43;;;;;;;11.20;1.70;;;;;;;20.29;94.63;101609.19;10459330;28;20124;-71
2022/07/26 11:08:46;;;;;;;20.25;2.63;;;;;;;20.39;92.98;101602.63;10441746;28;20041;-71
2022/07/26 11:13:47;;;;;;;9.77;1.65;;;;;;;20.18;91.51;101604.91;10455950;28;20049;-71
2022/07/26 11:18:47;;;;;;;14.63;1.90;;;;;;;20.38;91.49;101611.31;10464073;28;20037;-70
2022/07/26 11:23:50;;;;;;;8.95;1.67;;;;;;;20.69;87.29;101594.91;10460792;28;20041;-71
2022/07/26 11:29:00;;;;;;;8.02;1.95;;;;;;;21.06;83.86;101588.34;10460859;28;20475;-70
2022/07/26 11:34:01;;;;;;;9.70;2.15;;;;;;;20.86;85.67;101599.94;10461002;28;20044;-71
2022/07/26 11:39:03;;;;;;;10.52;1.85;;;;;;;20.50;84.24;101586.50;10454541;28;20039;-71
2022/07/26 11:44:03;;;;;;;9.60;2.15;;;;;;;19.85;86.04;101610.38;10443977;28;20040;-70
2022/07/26 11:49:11;;;;;;;7.65;1.50;;;;;;;19.90;87.57;101629.84;10442710;28;20061;-70
2022/07/26 11:54:12;;;;;;;12.60;1.67;;;;;;;19.96;84.15;101583.13;10459483;28;20041;-70
2022/07/26 11:59:12;;;;;;;8.98;1.10;;;;;;;20.20;82.37;101616.59;10461143;28;20098;-71
2022/07/26 12:04:21;;;;;;;11.50;1.85;;;;;;;20.66;78.42;101610.34;10456220;28;20045;-70
2022/07/26 12:09:31;;;;;;;10.20;1.38;;;;;;;20.90;79.10;101612.19;10460131;28;20041;-71
2022/07/26 12:14:36;;;;;;;5.28;0.82;;;;;;;20.95;76.43;101609.28;10460447;28;20408;-70
2022/07/26 12:19:37;;;;;;;6.97;0.90;;;;;;;21.01;74.04;101604.44;10436296;28;20040;-70
2022/07/26 12:24:45;;;;;;;5.05;0.80;;;;;;;20.31;75.62;101606.94;10420795;28;20087;-70
2022/07/26 12:29:47;;;;;;;4.32;0.82;;;;;;;20.26;76.09;101617.38;10419241;28;20109;-71
2022/07/26 12:34:59;;;;;;;5.63;1.00;;;;;;;20.38;75.91;101622.50;10438212;28;20045;-71
2022/07/26 12:40:05;;;;;;;12.43;1.02;;;;;;;20.76;77.84;101626.13;10459477;28;20041;-71
2022/07/26 12:45:08;;;;;;;2.90;0.60;;;;;;;21.46;73.41;101613.97;10459724;28;20040;-71
2022/07/26 12:50:09;;;;;;;2.55;0.75;;;;;;;21.48;73.32;101616.47;10460922;28;20097;-71
2022/07/26 12:55:13;;;;;;;4.65;0.63;;;;;;;21.31;71.83;101615.06;10460972;28;20048;-71
2022/07/26 13:00:15;;;;;;;4.95;0.95;;;;;;;21.34;70.98;101599.63;10459594;28;20049;-71
2022/07/26 13:05:15;;;;;;;5.57;0.80;;;;;;;21.34;74.33;101638.84;10459724;28;20041;-71
2022/07/26 13:10:16;;;;;;;7.50;1.13;;;;;;;21.00;76.48;101650.34;10458480;28;20033;-71
2022/07/26 13:15:16;;;;;;;6.85;1.23;;;;;;;21.20;75.31;101647.19;10459134;28;20064;-71
2022/07/26 13:20:16;;;;;;;6.43;0.90;;;;;;;20.99;77.95;101649.53;10459524;28;20044;-70
2022/07/26 13:25:17;;;;;;;6.50;1.02;;;;;;;20.94;79.78;101674.81;10458959;28;20049;-70
2022/07/26 13:30:17;;;;;;;3.33;1.08;;;;;;;21.38;76.86;101665.09;10456901;28;20098;-71
2022/07/26 13:35:18;;;;;;;6.20;0.95;;;;;;;21.06;75.64;101644.34;10458119;28;20107;-69
2022/07/26 13:40:18;;;;;;;7.32;1.00;;;;;;;21.12;77.55;101659.94;10456945;28;20087;-70
2022/07/26 13:45:19;;;;;;;5.32;1.02;;;;;;;20.83;74.38;101662.13;10447000;28;20032;-71
2022/07/26 13:50:19;;;;;;;3.70;0.70;;;;;;;21.25;73.82;101651.88;10455260;28;20040;-65
2022/07/26 13:55:20;;;;;;;6.13;1.00;;;;;;;21.45;69.95;101643.13;10459109;28;20059;-72
2022/07/26 14:00:20;;;;;;;4.50;0.75;;;;;;;22.01;71.45;101657.13;10456453;28;20059;-72
2022/07/26 14:05:21;;;;;;;3.28;0.70;;;;;;;21.90;70.37;101650.94;10451222;28;20103;-72
2022/07/26 14:10:22;;;;;;;5.47;1.08;;;;;;;23.30;66.84;101633.34;10434515;28;20060;-75
2022/07/26 14:15:22;;;;;;;6.78;0.90;;;;;;;23.17;65.00;101640.66;10434150;28;20059;-70
2022/07/26 14:20:23;;;;;;;4.68;1.02;;;;;;;23.69;64.23;101637.28;10429582;28;20045;-66
2022/07/26 14:25:25;;;;;;;5.20;0.80;;;;;;;24.25;62.61;101649.72;10434553;28;20041;-72
2022/07/26 14:30:26;;;;;;;8.23;1.55;;;;;;;23.44;63.23;101658.50;10433747;28;20124;-66
2022/07/26 14:35:27;;;;;;;6.80;1.10;;;;;;;23.06;64.38;101659.78;10433482;28;20041;-64
2022/07/26 14:40:27;;;;;;;8.07;1.17;;;;;;;21.72;65.21;101655.47;10433481;28;20033;-65
2022/07/26 14:45:28;;;;;;;3.60;0.82;;;;;;;21.48;64.54;101678.09;10435422;28;20048;-66
2022/07/26 14:50:28;;;;;;;6.35;1.40;;;;;;;22.04;64.59;101684.56;10435862;28;20048;-65
2022/07/26 14:55:29;;;;;;;4.40;0.93;;;;;;;21.75;64.60;101685.72;10439920;28;20037;-65
2022/07/26 15:00:30;;;;;;;4.72;0.80;;;;;;;22.04;65.52;101639.72;10439537;28;20049;-66
2022/07/26 15:05:30;;;;;;;10.18;1.15;;;;;;;24.30;59.27;101654.34;10437280;28;20041;-65
2022/07/26 15:10:31;;;;;;;5.00;0.70;;;;;;;24.89;55.06;101640.66;10437435;28;20045;-78
2022/07/26 15:15:31;;;;;;;4.65;0.90;;;;;;;24.31;54.64;101648.41;10438386;28;20045;-65
2022/07/26 15:20:32;;;;;;;3.55;0.98;;;;;;;23.28;56.58;101660.91;10441217;28;20653;-66
2022/07/26 15:25:32;;;;;;;2.00;0.80;;;;;;;23.28;56.58;101653.31;10419860;28;20065;-67
2022/07/26 15:30:33;;;;;;;3.35;0.77;;;;;;;24.19;53.97;101650.22;10442468;28;20044;-66
2022/07/26 15:35:37;;;;;;;2.35;0.43;;;;;;;23.24;56.63;101662.72;10446949;28;20045;-66
2022/07/26 15:40:38;;;;;;;2.30;0.93;;;;;;;22.06;56.77;101654.25;10446525;28;20396;-67
2022/07/26 15:45:40;;;;;;;3.08;0.70;;;;;;;21.25;59.43;101669.53;10448116;28;20087;-66
2022/07/26 15:50:43;;;;;;;8.02;1.58;;;;;;;21.49;61.25;101682.56;10449026;28;20041;-67
2022/07/26 15:55:44;;;;;;;4.20;0.70;;;;;;;21.37;64.16;101699.81;10445059;28;20045;-67
2022/07/26 16:00:44;;;;;;;6.75;0.88;;;;;;;20.75;63.63;101684.06;10431821;28;20651;-67
2022/07/26 16:05:46;;;;;;;6.80;0.60;;;;;;;20.43;66.21;101703.53;10441045;28;20045;-67
2022/07/26 16:10:47;;;;;;;4.13;0.70;;;;;;;20.34;69.50;101720.16;10443449;28;20087;-68
2022/07/26 16:15:47;;;;;;;5.70;0.80;;;;;;;20.47;70.64;101715.78;10443769;28;20045;-68
2022/07/26 16:20:48;;;;;;;3.25;0.88;;;;;;;20.90;70.10;101712.94;10440393;28;20045;-68
2022/07/26 16:25:48;;;;;;;4.28;1.15;;;;;;;21.70;67.48;101713.81;10450859;28;20033;-67
2022/07/26 16:30:48;;;;;;;2.17;0.40;;;;;;;20.81;67.33;101704.38;10447069;28;20102;-69
2022/07/26 16:35:49;;;;;;;4.00;0.47;;;;;;;19.77;69.77;101720.00;10460942;28;20033;-69
2022/07/26 16:40:49;;;;;;;3.72;0.80;;;;;;;19.38;71.44;101722.88;10459785;28;20044;-68
2022/07/26 16:45:50;;;;;;;1.50;0.45;;;;;;;19.21;74.31;101731.69;10459776;28;20037;-67
2022/07/26 16:50:50;;;;;;;4.85;0.77;;;;;;;19.08;75.18;101731.22;10460113;28;20036;-67
2022/07/26 16:55:51;;;;;;;3.13;0.80;;;;;;;18.81;77.38;101742.00;10459913;28;20044;-68
2022/07/26 17:00:51;;;;;;;1.67;0.40;;;;;;;18.45;81.59;101750.56;10440173;28;20045;-68
2022/07/26 17:05:52;;;;;;;4.93;0.93;;;;;;;18.17;86.39;101771.56;10437884;28;20055;-67
2022/07/26 17:10:52;;;;;;;3.58;0.60;;;;;;;18.18;86.08;101754.56;10438709;28;20067;-68
2022/07/26 17:15:53;;;;;;;5.50;0.70;;;;;;;18.13;84.07;101747.06;10439011;28;20060;-67
2022/07/26 17:20:53;;;;;;;1.85;0.30;;;;;;;18.24;81.54;101739.50;10439578;28;20814;-67
2022/07/26 17:25:54;;;;;;;1.65;0.30;;;;;;;18.19;79.07;101731.16;10436612;28;20488;-70
2022/07/26 17:30:54;;;;;;;2.53;0.40;;;;;;;18.24;80.77;101742.28;10437334;28;20068;-71
2022/07/26 17:35:55;;;;;;;1.73;0.52;;;;;;;18.13;80.26;101741.50;10438618;28;20037;-72
2022/07/26 17:40:55;;;;;;;2.97;0.32;;;;;;;18.00;82.28;101750.44;10437760;28;20037;-71
2022/07/26 17:45:55;;;;;;;0.90;0.40;;;;;;;17.90;84.09;101756.88;10436328;28;20496;-71
2022/07/26 17:50:56;;;;;;;5.55;0.60;;;;;;;17.80;85.83;101761.59;10437921;28;20402;-71
2022/07/26 17:55:57;;;;;;;4.35;0.50;;;;;;;17.69;86.90;101758.84;10437307;28;20041;-67
2022/07/26 18:00:57;;;;;;;0.77;0.30;;;;;;;17.54;87.51;101765.25;10437134;28;20120;-70
2022/07/26 18:05:58;;;;;;;5.53;0.55;;;;;;;17.45;87.41;101758.59;10435133;28;20053;-71
2022/07/26 18:10:59;;;;;;;4.25;0.45;;;;;;;17.48;89.86;101755.22;10435667;28;20033;-65
2022/07/26 18:16:00;;;;;;;2.88;0.50;;;;;;;17.44;90.04;101754.13;10437665;28;20045;-69
2022/07/26 18:21:00;;;;;;;0.80;0.30;;;;;;;17.07;90.78;101721.84;10434552;28;20508;-71
2022/07/26 18:26:00;;;;;;;2.70;0.60;;;;;;;17.21;95.67;101779.75;10434830;28;20052;-71
2022/07/26 18:31:01;;;;;;;1.90;0.52;;;;;;;17.01;100.00;101778.63;10432229;28;20037;-72
2022/07/26 18:36:01;;;;;;;7.20;0.85;;;;;;;16.85;100.00;101785.25;10441671;28;20416;-69
2022/07/26 18:41:02;;;;;;;3.72;0.50;;;;;;;16.62;100.00;101783.75;10456227;28;20033;-71
2022/07/26 18:46:02;;;;;;;5.45;0.65;;;;;;;16.47;100.00;101784.53;10456606;28;20033;-71
2022/07/26 18:51:03;;;;;;;1.73;0.60;;;;;;;16.34;100.00;101792.25;10441497;28;20048;-70
2022/07/26 18:56:04;;;;;;;3.97;0.55;;;;;;;16.20;100.00;101790.25;10450378;28;20048;-71
2022/07/26 19:01:04;;;;;;;4.72;0.65;;;;;;;16.06;100.00;101781.56;10453932;28;20049;-71
2022/07/26 19:06:05;;;;;;;3.20;0.88;;;;;;;16.09;100.00;101779.06;10458164;28;20307;-71
2022/07/26 19:11:05;;;;;;;3.42;0.52;;;;;;;16.06;100.00;101784.31;10463740;28;20053;-71
2022/07/26 19:16:06;;;;;;;6.75;0.50;;;;;;;16.06;100.00;101795.44;10463904;28;20036;-70
2022/07/26 19:21:06;;;;;;;5.00;0.73;;;;;;;15.99;100.00;101789.31;10463493;28;20029;-71
2022/07/26 19:26:07;;;;;;;7.18;0.65;;;;;;;15.91;100.00;101807.28;10462252;28;20041;-71
2022/07/26 19:31:07;;;;;;;5.65;0.80;;;;;;;15.80;100.00;101808.34;10460063;28;20128;-71
2022/07/26 19:36:08;;;;;;;2.28;0.50;;;;;;;15.68;100.00;101814.03;10461556;28;20029;-71
2022/07/26 19:41:09;;;;;;;6.10;0.80;;;;;;;15.62;100.00;101820.66;10460133;28;20033;-71
2022/07/26 19:46:09;;;;;;;4.10;0.88;;;;;;;15.53;100.00;101823.09;10461771;28;20029;-70
2022/07/26 19:51:10;;;;;;;4.20;0.80;;;;;;;15.34;100.00;101809.59;10461764;28;20048;-71
2022/07/26 19:56:10;;;;;;;2.75;0.73;;;;;;;15.37;100.00;101822.09;10441126;28;20060;-71
2022/07/26 20:01:11;;;;;;;2.90;0.68;;;;;;;15.33;100.00;101818.19;10439950;28;20052;-71
2022/07/26 20:06:11;;;;;;;4.32;0.70;;;;;;;15.31;100.00;101829.53;10441002;28;20112;-70
2022/07/26 20:11:14;;;;;;;4.00;0.70;;;;;;;15.23;100.00;101826.41;10440935;28;20045;-71
2022/07/26 20:16:14;;;;;;;1.48;0.50;;;;;;;15.07;100.00;101812.41;10440761;28;20033;-71
2022/07/26 20:21:15;;;;;;;3.25;0.75;;;;;;;15.06;100.00;101832.91;10437974;28;20037;-72
2022/07/26 20:26:15;;;;;;;5.55;0.80;;;;;;;14.94;100.00;101823.88;10439884;28;20079;-73
2022/07/26 20:31:16;;;;;;;2.75;0.80;;;;;;;14.85;100.00;101829.06;10438934;28;20037;-71
2022/07/26 20:36:16;;;;;;;1.05;0.60;;;;;;;14.71;100.00;101831.38;10438863;28;20402;-72
2022/07/26 20:41:17;;;;;;;3.20;1.73;;;;;;;14.57;100.00;101837.59;10440043;28;20029;-71
2022/07/26 20:46:17;;;;;;;3.20;0.85;;;;;;;14.50;100.00;101835.81;10440015;28;20045;-72
2022/07/26 20:51:18;;;;;;;2.45;0.65;;;;;;;14.52;100.00;101841.09;10439638;28;20045;-72
2022/07/26 20:56:19;;;;;;;3.97;0.80;;;;;;;14.54;100.00;101847.22;10436381;28;20041;-71
2022/07/26 21:01:20;;;;;;;5.38;1.67;;;;;;;14.54;100.00;101858.31;10419210;28;20047;-71
2022/07/26 21:06:20;;;;;;;5.05;0.77;;;;;;;14.60;100.00;101846.22;10435432;28;20033;-71
2022/07/26 21:11:21;;;;;;;3.40;0.90;;;;;;;14.66;100.00;101855.47;10437426;28;20037;-71
2022/07/26 21:16:21;;;;;;;6.72;0.93;;;;;;;14.67;100.00;101852.41;10436020;28;20155;-72
2022/07/26 21:21:22;;;;;;;6.07;0.70;;;;;;;14.67;100.00;101851.56;10435775;28;20032;-67
2022/07/26 21:26:22;;;;;;;3.72;1.30;;;;;;;14.63;100.00;101854.03;10436425;28;20043;-72
2022/07/26 21:31:23;;;;;;;1.55;0.55;;;;;;;14.63;100.00;101850.41;10434730;28;20051;-71
2022/07/26 21:36:23;;;;;;;5.30;1.10;;;;;;;14.57;100.00;101852.28;10435573;28;20123;-71
2022/07/26 21:41:24;;;;;;;3.58;0.75;;;;;;;14.46;100.00;101856.81;10436195;28;20077;-71
2022/07/26 21:46:24;;;;;;;4.05;0.73;;;;;;;14.37;100.00;101852.84;10435168;28;20058;-71
2022/07/26 21:51:25;;;;;;;7.55;1.02;;;;;;;14.30;100.00;101855.78;10417369;28;20044;-71
2022/07/26 21:56:25;;;;;;;5.22;1.00;;;;;;;14.25;100.00;101863.19;10416119;28;20069;-71
2022/07/26 22:01:26;;;;;;;4.45;0.93;;;;;;;14.11;100.00;101865.47;10410679;28;20438;-71
2022/07/26 22:06:26;;;;;;;6.80;1.30;;;;;;;13.97;100.00;101866.91;10430253;28;20079;-72
2022/07/26 22:11:28;;;;;;;4.80;1.20;;;;;;;13.75;100.00;101862.16;10453555;28;20041;-71
2022/07/26 22:16:30;;;;;;;10.43;1.17;;;;;;;13.70;100.00;101871.22;10436607;28;20044;-71
2022/07/26 22:21:30;;;;;;;5.32;0.90;;;;;;;13.67;100.00;101868.09;10437025;28;20045;-71
2022/07/26 22:26:31;;;;;;;3.10;0.65;;;;;;;13.62;100.00;101862.47;10452606;28;20607;-73
2022/07/26 22:31:32;;;;;;;3.30;0.85;;;;;;;13.49;100.00;101847.84;10463898;28;20037;-72
2022/07/26 22:36:32;;;;;;;2.67;0.68;;;;;;;13.48;100.00;101857.25;10452919;28;20040;-72
2022/07/26 22:41:33;;;;;;;7.55;0.93;;;;;;;13.39;100.00;101863.44;10454416;28;20041;-71
2022/07/26 22:46:33;;;;;;;11.63;1.42;;;;;;;13.29;100.00;101866.84;10448115;28;20034;-72